sensor_id;sensor_type;location;lat;lon;timestamp;P1;durP1;ratioP1;P2;durP2;ratioP2
50591;SDS011;36548;50.506;30.834;2023-03-20T00:00:34;39.67;;;29.10;;
50591;SDS011;36548;50.506;30.834;2023-03-20T00:01:48;37.88;;;28.98;;
50591;SDS011;36548;50.506;30.834;2023-03-20T00:02:58;35.45;;;26.45;;
50591;SDS011;36548;50.506;30.834;2023-03-20T00:04:08;36.05;;;27.40;;
50591;SDS011;36548;50.506;30.834;2023-03-20T00:05:21;34.25;;;27.05;;
50591;SDS011;36548;50.506;30.834;2023-03-20T00:07:49;33.32;;;24.90;;
50591;SDS011;36548;50.506;30.834;2023-03-20T00:08:58;29.35;;;24.25;;
50591;SDS011;36548;50.506;30.834;2023-03-20T00:10:10;30.02;;;24.47;;
50591;SDS011;36548;50.506;30.834;2023-03-20T00:12:38;28.20;;;24.25;;
50591;SDS011;36548;50.506;30.834;2023-03-20T00:13:48;31.25;;;24.63;;
50591;SDS011;36548;50.506;30.834;2023-03-20T00:14:59;31.05;;;25.50;;
50591;SDS011;36548;50.506;30.834;2023-03-20T00:16:13;28.27;;;23.32;;
50591;SDS011;36548;50.506;30.834;2023-03-20T00:17:23;29.72;;;23.30;;
50591;SDS011;36548;50.506;30.834;2023-03-20T00:18:32;30.02;;;24.12;;
50591;SDS011;36548;50.506;30.834;2023-03-20T00:19:42;31.93;;;25.73;;
50591;SDS011;36548;50.506;30.834;2023-03-20T00:20:52;27.45;;;23.80;;
50591;SDS011;36548;50.506;30.834;2023-03-20T00:22:03;27.87;;;23.10;;
50591;SDS011;36548;50.506;30.834;2023-03-20T00:23:13;26.63;;;22.77;;
50591;SDS011;36548;50.506;30.834;2023-03-20T00:24:24;21.70;;;16.90;;
50591;SDS011;36548;50.506;30.834;2023-03-20T00:25:51;26.25;;;22.35;;
50591;SDS011;36548;50.506;30.834;2023-03-20T00:27:02;31.20;;;23.40;;
50591;SDS011;36548;50.506;30.834;2023-03-20T00:29:38;25.02;;;21.97;;
50591;SDS011;36548;50.506;30.834;2023-03-20T00:30:48;26.43;;;22.03;;
50591;SDS011;36548;50.506;30.834;2023-03-20T00:31:59;26.10;;;21.85;;
50591;SDS011;36548;50.506;30.834;2023-03-20T00:33:08;27.40;;;22.50;;
50591;SDS011;36548;50.506;30.834;2023-03-20T00:34:20;26.90;;;22.46;;
50591;SDS011;36548;50.506;30.834;2023-03-20T00:35:32;28.30;;;23.10;;
50591;SDS011;36548;50.506;30.834;2023-03-20T00:36:42;26.83;;;21.12;;
50591;SDS011;36548;50.506;30.834;2023-03-20T00:37:52;26.93;;;21.57;;
50591;SDS011;36548;50.506;30.834;2023-03-20T00:39:02;25.00;;;21.85;;
50591;SDS011;36548;50.506;30.834;2023-03-20T00:40:12;26.42;;;21.28;;
50591;SDS011;36548;50.506;30.834;2023-03-20T00:41:24;27.50;;;22.65;;
50591;SDS011;36548;50.506;30.834;2023-03-20T00:42:42;26.12;;;21.27;;
50591;SDS011;36548;50.506;30.834;2023-03-20T00:43:56;26.37;;;21.62;;
50591;SDS011;36548;50.506;30.834;2023-03-20T00:45:33;25.32;;;21.08;;
50591;SDS011;36548;50.506;30.834;2023-03-20T00:46:44;25.83;;;21.57;;
50591;SDS011;36548;50.506;30.834;2023-03-20T00:47:55;25.18;;;20.78;;
50591;SDS011;36548;50.506;30.834;2023-03-20T00:50:21;24.75;;;20.93;;
50591;SDS011;36548;50.506;30.834;2023-03-20T00:51:33;25.92;;;21.37;;
50591;SDS011;36548;50.506;30.834;2023-03-20T00:52:43;26.28;;;23.43;;
50591;SDS011;36548;50.506;30.834;2023-03-20T00:53:53;30.22;;;23.32;;
50591;SDS011;36548;50.506;30.834;2023-03-20T00:55:03;27.07;;;22.92;;
50591;SDS011;36548;50.506;30.834;2023-03-20T00:56:29;29.45;;;23.92;;
50591;SDS011;36548;50.506;30.834;2023-03-20T00:57:42;27.48;;;22.30;;
50591;SDS011;36548;50.506;30.834;2023-03-20T00:58:53;28.80;;;23.85;;
50591;SDS011;36548;50.506;30.834;2023-03-20T01:00:07;31.60;;;24.60;;
50591;SDS011;36548;50.506;30.834;2023-03-20T01:01:19;29.02;;;24.65;;
50591;SDS011;36548;50.506;30.834;2023-03-20T01:02:28;32.38;;;26.50;;
50591;SDS011;36548;50.506;30.834;2023-03-20T01:03:41;31.68;;;25.65;;
50591;SDS011;36548;50.506;30.834;2023-03-20T01:04:49;32.13;;;26.62;;
50591;SDS011;36548;50.506;30.834;2023-03-20T01:06:00;32.38;;;25.45;;
50591;SDS011;36548;50.506;30.834;2023-03-20T01:07:11;32.98;;;26.47;;
50591;SDS011;36548;50.506;30.834;2023-03-20T01:08:23;32.08;;;25.94;;
50591;SDS011;36548;50.506;30.834;2023-03-20T01:09:33;31.60;;;25.85;;
50591;SDS011;36548;50.506;30.834;2023-03-20T01:10:42;31.25;;;24.93;;
50591;SDS011;36548;50.506;30.834;2023-03-20T01:13:01;29.07;;;22.92;;
50591;SDS011;36548;50.506;30.834;2023-03-20T01:14:11;30.33;;;23.43;;
50591;SDS011;36548;50.506;30.834;2023-03-20T01:15:24;28.75;;;22.50;;
50591;SDS011;36548;50.506;30.834;2023-03-20T01:16:37;25.25;;;20.82;;
50591;SDS011;36548;50.506;30.834;2023-03-20T01:17:47;30.45;;;24.15;;
50591;SDS011;36548;50.506;30.834;2023-03-20T01:18:57;27.07;;;21.30;;
50591;SDS011;36548;50.506;30.834;2023-03-20T01:20:09;26.55;;;22.22;;
50591;SDS011;36548;50.506;30.834;2023-03-20T01:21:26;25.67;;;22.30;;
50591;SDS011;36548;50.506;30.834;2023-03-20T01:22:36;28.92;;;23.82;;
50591;SDS011;36548;50.506;30.834;2023-03-20T01:23:46;26.82;;;22.27;;
50591;SDS011;36548;50.506;30.834;2023-03-20T01:24:56;28.03;;;23.80;;
50591;SDS011;36548;50.506;30.834;2023-03-20T01:26:19;30.10;;;25.93;;
50591;SDS011;36548;50.506;30.834;2023-03-20T01:27:42;34.13;;;27.33;;
50591;SDS011;36548;50.506;30.834;2023-03-20T01:28:53;32.47;;;27.08;;
50591;SDS011;36548;50.506;30.834;2023-03-20T01:30:02;36.50;;;28.78;;
50591;SDS011;36548;50.506;30.834;2023-03-20T01:31:15;39.07;;;29.18;;
50591;SDS011;36548;50.506;30.834;2023-03-20T01:32:25;43.75;;;29.87;;
50591;SDS011;36548;50.506;30.834;2023-03-20T01:33:35;44.57;;;32.13;;
50591;SDS011;36548;50.506;30.834;2023-03-20T01:34:46;41.45;;;31.90;;
50591;SDS011;36548;50.506;30.834;2023-03-20T01:35:56;40.27;;;28.88;;
50591;SDS011;36548;50.506;30.834;2023-03-20T01:37:13;34.00;;;26.00;;
50591;SDS011;36548;50.506;30.834;2023-03-20T01:38:32;41.52;;;32.03;;
50591;SDS011;36548;50.506;30.834;2023-03-20T01:39:42;35.65;;;28.00;;
50591;SDS011;36548;50.506;30.834;2023-03-20T01:41:11;40.85;;;30.32;;
50591;SDS011;36548;50.506;30.834;2023-03-20T01:42:27;29.92;;;23.55;;
50591;SDS011;36548;50.506;30.834;2023-03-20T01:43:38;24.52;;;21.20;;
50591;SDS011;36548;50.506;30.834;2023-03-20T01:44:48;33.47;;;25.87;;
50591;SDS011;36548;50.506;30.834;2023-03-20T01:47:16;27.38;;;21.28;;
50591;SDS011;36548;50.506;30.834;2023-03-20T01:51:38;24.85;;;20.47;;
50591;SDS011;36548;50.506;30.834;2023-03-20T01:52:49;25.30;;;20.85;;
50591;SDS011;36548;50.506;30.834;2023-03-20T01:55:47;26.55;;;23.05;;
50591;SDS011;36548;50.506;30.834;2023-03-20T01:58:15;27.95;;;21.33;;
50591;SDS011;36548;50.506;30.834;2023-03-20T01:59:28;29.18;;;22.48;;
50591;SDS011;36548;50.506;30.834;2023-03-20T02:00:54;41.75;;;32.67;;
50591;SDS011;36548;50.506;30.834;2023-03-20T02:02:05;38.80;;;30.35;;
50591;SDS011;36548;50.506;30.834;2023-03-20T02:03:16;50.90;;;36.30;;
50591;SDS011;36548;50.506;30.834;2023-03-20T02:04:35;44.40;;;37.00;;
50591;SDS011;36548;50.506;30.834;2023-03-20T02:05:50;50.20;;;37.42;;
50591;SDS011;36548;50.506;30.834;2023-03-20T02:07:00;48.20;;;38.60;;
50591;SDS011;36548;50.506;30.834;2023-03-20T02:08:29;35.47;;;27.43;;
50591;SDS011;36548;50.506;30.834;2023-03-20T02:09:40;23.57;;;20.90;;
50591;SDS011;36548;50.506;30.834;2023-03-20T02:10:52;22.18;;;19.13;;
50591;SDS011;36548;50.506;30.834;2023-03-20T02:12:04;24.15;;;20.50;;
50591;SDS011;36548;50.506;30.834;2023-03-20T02:13:20;25.13;;;21.53;;
50591;SDS011;36548;50.506;30.834;2023-03-20T02:14:30;43.45;;;32.30;;
50591;SDS011;36548;50.506;30.834;2023-03-20T02:16:03;38.13;;;29.65;;
50591;SDS011;36548;50.506;30.834;2023-03-20T02:17:33;26.85;;;22.32;;
50591;SDS011;36548;50.506;30.834;2023-03-20T02:18:46;31.07;;;23.80;;
50591;SDS011;36548;50.506;30.834;2023-03-20T02:26:38;28.62;;;21.93;;
50591;SDS011;36548;50.506;30.834;2023-03-20T02:41:28;34.48;;;28.73;;
50591;SDS011;36548;50.506;30.834;2023-03-20T02:44:18;42.78;;;34.67;;
50591;SDS011;36548;50.506;30.834;2023-03-20T02:45:42;42.23;;;35.43;;
50591;SDS011;36548;50.506;30.834;2023-03-20T02:47:05;45.37;;;37.57;;
50591;SDS011;36548;50.506;30.834;2023-03-20T02:49:47;38.30;;;31.45;;
50591;SDS011;36548;50.506;30.834;2023-03-20T02:52:17;32.44;;;28.76;;
50591;SDS011;36548;50.506;30.834;2023-03-20T02:53:39;34.15;;;27.95;;
50591;SDS011;36548;50.506;30.834;2023-03-20T03:00:33;47.35;;;37.50;;
50591;SDS011;36548;50.506;30.834;2023-03-20T03:01:52;48.40;;;36.10;;
50591;SDS011;36548;50.506;30.834;2023-03-20T03:04:35;40.05;;;33.35;;
50591;SDS011;36548;50.506;30.834;2023-03-20T03:05:52;41.67;;;32.10;;
50591;SDS011;36548;50.506;30.834;2023-03-20T03:07:05;40.13;;;30.87;;
50591;SDS011;36548;50.506;30.834;2023-03-20T03:08:18;41.18;;;32.87;;
50591;SDS011;36548;50.506;30.834;2023-03-20T03:09:47;40.22;;;32.85;;
50591;SDS011;36548;50.506;30.834;2023-03-20T03:11:04;37.88;;;31.02;;
50591;SDS011;36548;50.506;30.834;2023-03-20T03:12:17;40.93;;;31.67;;
50591;SDS011;36548;50.506;30.834;2023-03-20T03:13:32;40.55;;;32.25;;
50591;SDS011;36548;50.506;30.834;2023-03-20T03:16:06;39.52;;;32.17;;
50591;SDS011;36548;50.506;30.834;2023-03-20T03:17:19;35.75;;;31.25;;
50591;SDS011;36548;50.506;30.834;2023-03-20T03:18:38;58.10;;;44.65;;
50591;SDS011;36548;50.506;30.834;2023-03-20T03:19:48;72.48;;;53.93;;
50591;SDS011;36548;50.506;30.834;2023-03-20T03:21:01;170.28;;;122.58;;
50591;SDS011;36548;50.506;30.834;2023-03-20T03:22:16;124.77;;;90.83;;
50591;SDS011;36548;50.506;30.834;2023-03-20T03:25:13;82.35;;;62.00;;
50591;SDS011;36548;50.506;30.834;2023-03-20T03:26:26;60.80;;;46.55;;
50591;SDS011;36548;50.506;30.834;2023-03-20T03:27:42;44.23;;;35.08;;
50591;SDS011;36548;50.506;30.834;2023-03-20T03:28:58;39.55;;;33.43;;
50591;SDS011;36548;50.506;30.834;2023-03-20T03:30:15;37.40;;;29.85;;
50591;SDS011;36548;50.506;30.834;2023-03-20T03:31:36;36.73;;;30.72;;
50591;SDS011;36548;50.506;30.834;2023-03-20T03:34:31;37.80;;;32.28;;
50591;SDS011;36548;50.506;30.834;2023-03-20T03:35:44;41.25;;;34.20;;
50591;SDS011;36548;50.506;30.834;2023-03-20T03:37:01;41.03;;;33.50;;
50591;SDS011;36548;50.506;30.834;2023-03-20T03:44:00;33.83;;;27.75;;
50591;SDS011;36548;50.506;30.834;2023-03-20T03:45:12;43.92;;;34.65;;
50591;SDS011;36548;50.506;30.834;2023-03-20T03:48:06;42.58;;;34.52;;
50591;SDS011;36548;50.506;30.834;2023-03-20T03:49:30;35.20;;;30.45;;
50591;SDS011;36548;50.506;30.834;2023-03-20T03:50:47;38.73;;;31.15;;
50591;SDS011;36548;50.506;30.834;2023-03-20T03:52:00;37.40;;;31.85;;
50591;SDS011;36548;50.506;30.834;2023-03-20T03:53:11;42.60;;;35.25;;
50591;SDS011;36548;50.506;30.834;2023-03-20T03:55:44;45.72;;;35.78;;
50591;SDS011;36548;50.506;30.834;2023-03-20T03:56:55;44.03;;;36.62;;
50591;SDS011;36548;50.506;30.834;2023-03-20T03:59:34;46.02;;;34.87;;
50591;SDS011;36548;50.506;30.834;2023-03-20T04:00:54;41.27;;;35.98;;
50591;SDS011;36548;50.506;30.834;2023-03-20T04:02:07;42.62;;;35.80;;
50591;SDS011;36548;50.506;30.834;2023-03-20T04:03:18;43.65;;;35.70;;
50591;SDS011;36548;50.506;30.834;2023-03-20T04:04:31;40.75;;;35.33;;
50591;SDS011;36548;50.506;30.834;2023-03-20T04:05:43;43.77;;;34.58;;
50591;SDS011;36548;50.506;30.834;2023-03-20T04:06:55;41.03;;;34.05;;
50591;SDS011;36548;50.506;30.834;2023-03-20T04:08:04;41.97;;;35.33;;
50591;SDS011;36548;50.506;30.834;2023-03-20T04:09:14;45.28;;;35.52;;
50591;SDS011;36548;50.506;30.834;2023-03-20T04:10:26;43.68;;;36.07;;
50591;SDS011;36548;50.506;30.834;2023-03-20T04:11:36;40.35;;;35.35;;
50591;SDS011;36548;50.506;30.834;2023-03-20T04:12:46;42.40;;;35.77;;
50591;SDS011;36548;50.506;30.834;2023-03-20T04:13:56;42.40;;;35.40;;
50591;SDS011;36548;50.506;30.834;2023-03-20T04:15:12;46.62;;;36.93;;
50591;SDS011;36548;50.506;30.834;2023-03-20T04:16:24;43.68;;;37.20;;
50591;SDS011;36548;50.506;30.834;2023-03-20T04:17:35;44.85;;;36.30;;
50591;SDS011;36548;50.506;30.834;2023-03-20T04:18:46;48.47;;;37.55;;
50591;SDS011;36548;50.506;30.834;2023-03-20T04:19:57;44.35;;;36.50;;
50591;SDS011;36548;50.506;30.834;2023-03-20T04:21:07;48.12;;;36.82;;
50591;SDS011;36548;50.506;30.834;2023-03-20T04:22:23;45.88;;;36.85;;
50591;SDS011;36548;50.506;30.834;2023-03-20T04:23:33;44.23;;;36.73;;
50591;SDS011;36548;50.506;30.834;2023-03-20T04:24:48;44.13;;;36.73;;
50591;SDS011;36548;50.506;30.834;2023-03-20T04:25:59;44.03;;;36.00;;
50591;SDS011;36548;50.506;30.834;2023-03-20T04:27:10;40.60;;;33.12;;
50591;SDS011;36548;50.506;30.834;2023-03-20T04:28:21;40.30;;;32.20;;
50591;SDS011;36548;50.506;30.834;2023-03-20T04:29:42;37.53;;;28.97;;
50591;SDS011;36548;50.506;30.834;2023-03-20T04:30:59;34.45;;;29.20;;
50591;SDS011;36548;50.506;30.834;2023-03-20T04:32:14;32.93;;;28.90;;
50591;SDS011;36548;50.506;30.834;2023-03-20T04:35:07;37.35;;;30.45;;
50591;SDS011;36548;50.506;30.834;2023-03-20T04:36:31;33.70;;;30.10;;
50591;SDS011;36548;50.506;30.834;2023-03-20T04:37:40;39.73;;;34.20;;
50591;SDS011;36548;50.506;30.834;2023-03-20T04:38:49;44.80;;;35.80;;
50591;SDS011;36548;50.506;30.834;2023-03-20T04:40:03;47.35;;;37.50;;
50591;SDS011;36548;50.506;30.834;2023-03-20T04:41:19;43.37;;;35.57;;
50591;SDS011;36548;50.506;30.834;2023-03-20T04:42:30;45.57;;;38.10;;
50591;SDS011;36548;50.506;30.834;2023-03-20T04:43:45;42.63;;;37.25;;
50591;SDS011;36548;50.506;30.834;2023-03-20T04:44:55;41.42;;;35.55;;
50591;SDS011;36548;50.506;30.834;2023-03-20T04:46:05;40.70;;;36.08;;
50591;SDS011;36548;50.506;30.834;2023-03-20T04:48:25;42.45;;;36.50;;
50591;SDS011;36548;50.506;30.834;2023-03-20T04:49:41;44.78;;;38.60;;
50591;SDS011;36548;50.506;30.834;2023-03-20T04:50:52;46.00;;;39.80;;
50591;SDS011;36548;50.506;30.834;2023-03-20T04:52:04;54.98;;;45.87;;
50591;SDS011;36548;50.506;30.834;2023-03-20T04:53:20;61.62;;;49.00;;
50591;SDS011;36548;50.506;30.834;2023-03-20T04:54:33;71.37;;;53.45;;
50591;SDS011;36548;50.506;30.834;2023-03-20T04:55:44;62.67;;;51.93;;
50591;SDS011;36548;50.506;30.834;2023-03-20T04:56:53;58.57;;;44.95;;
50591;SDS011;36548;50.506;30.834;2023-03-20T04:58:03;39.47;;;34.53;;
50591;SDS011;36548;50.506;30.834;2023-03-20T04:59:20;40.18;;;30.58;;
50591;SDS011;36548;50.506;30.834;2023-03-20T05:00:29;31.40;;;28.17;;
50591;SDS011;36548;50.506;30.834;2023-03-20T05:01:45;35.50;;;31.60;;
50591;SDS011;36548;50.506;30.834;2023-03-20T05:02:55;41.40;;;34.00;;
50591;SDS011;36548;50.506;30.834;2023-03-20T05:04:05;31.70;;;28.48;;
50591;SDS011;36548;50.506;30.834;2023-03-20T05:05:17;35.05;;;29.62;;
50591;SDS011;36548;50.506;30.834;2023-03-20T05:06:27;31.32;;;27.28;;
50591;SDS011;36548;50.506;30.834;2023-03-20T05:07:36;29.50;;;25.73;;
50591;SDS011;36548;50.506;30.834;2023-03-20T05:08:47;31.08;;;27.75;;
50591;SDS011;36548;50.506;30.834;2023-03-20T05:09:58;30.45;;;24.25;;
50591;SDS011;36548;50.506;30.834;2023-03-20T05:11:13;28.73;;;25.13;;
50591;SDS011;36548;50.506;30.834;2023-03-20T05:12:40;27.28;;;24.13;;
50591;SDS011;36548;50.506;30.834;2023-03-20T05:13:50;27.35;;;23.60;;
50591;SDS011;36548;50.506;30.834;2023-03-20T05:15:02;28.63;;;25.45;;
50591;SDS011;36548;50.506;30.834;2023-03-20T05:16:31;27.17;;;24.27;;
50591;SDS011;36548;50.506;30.834;2023-03-20T05:17:43;31.53;;;27.58;;
50591;SDS011;36548;50.506;30.834;2023-03-20T05:18:52;32.57;;;27.57;;
50591;SDS011;36548;50.506;30.834;2023-03-20T05:20:15;32.27;;;28.75;;
50591;SDS011;36548;50.506;30.834;2023-03-20T05:21:32;33.08;;;28.05;;
50591;SDS011;36548;50.506;30.834;2023-03-20T05:22:40;32.03;;;27.77;;
50591;SDS011;36548;50.506;30.834;2023-03-20T05:23:56;263.15;;;50.08;;
50591;SDS011;36548;50.506;30.834;2023-03-20T05:25:10;102.02;;;79.58;;
50591;SDS011;36548;50.506;30.834;2023-03-20T05:26:40;143.32;;;128.43;;
50591;SDS011;36548;50.506;30.834;2023-03-20T05:28:06;55.70;;;48.15;;
50591;SDS011;36548;50.506;30.834;2023-03-20T05:29:29;42.65;;;36.25;;
50591;SDS011;36548;50.506;30.834;2023-03-20T05:30:45;42.68;;;36.42;;
50591;SDS011;36548;50.506;30.834;2023-03-20T05:32:08;42.33;;;35.43;;
50591;SDS011;36548;50.506;30.834;2023-03-20T05:33:21;41.18;;;35.32;;
50591;SDS011;36548;50.506;30.834;2023-03-20T05:34:32;42.88;;;37.93;;
50591;SDS011;36548;50.506;30.834;2023-03-20T05:35:47;44.47;;;37.92;;
50591;SDS011;36548;50.506;30.834;2023-03-20T05:37:15;41.85;;;35.95;;
50591;SDS011;36548;50.506;30.834;2023-03-20T05:38:40;43.08;;;36.57;;
50591;SDS011;36548;50.506;30.834;2023-03-20T05:39:55;42.27;;;35.88;;
50591;SDS011;36548;50.506;30.834;2023-03-20T05:41:23;45.22;;;37.90;;
50591;SDS011;36548;50.506;30.834;2023-03-20T05:42:38;44.42;;;36.72;;
50591;SDS011;36548;50.506;30.834;2023-03-20T05:44:07;44.60;;;37.05;;
50591;SDS011;36548;50.506;30.834;2023-03-20T05:45:28;42.45;;;35.75;;
50591;SDS011;36548;50.506;30.834;2023-03-20T05:46:46;44.95;;;35.25;;
50591;SDS011;36548;50.506;30.834;2023-03-20T05:47:59;40.87;;;35.77;;
50591;SDS011;36548;50.506;30.834;2023-03-20T05:49:27;41.05;;;34.73;;
50591;SDS011;36548;50.506;30.834;2023-03-20T05:50:55;45.38;;;35.95;;
50591;SDS011;36548;50.506;30.834;2023-03-20T05:52:19;41.42;;;36.02;;
50591;SDS011;36548;50.506;30.834;2023-03-20T05:53:36;42.15;;;34.85;;
50591;SDS011;36548;50.506;30.834;2023-03-20T05:54:53;43.02;;;38.03;;
50591;SDS011;36548;50.506;30.834;2023-03-20T05:56:08;42.48;;;35.80;;
50591;SDS011;36548;50.506;30.834;2023-03-20T05:57:24;43.48;;;36.97;;
50591;SDS011;36548;50.506;30.834;2023-03-20T05:58:39;41.87;;;36.77;;
50591;SDS011;36548;50.506;30.834;2023-03-20T05:59:58;44.10;;;36.96;;
50591;SDS011;36548;50.506;30.834;2023-03-20T06:01:27;43.28;;;37.88;;
50591;SDS011;36548;50.506;30.834;2023-03-20T06:02:43;42.35;;;37.90;;
50591;SDS011;36548;50.506;30.834;2023-03-20T06:03:56;46.03;;;39.40;;
50591;SDS011;36548;50.506;30.834;2023-03-20T06:05:11;48.17;;;39.77;;
50591;SDS011;36548;50.506;30.834;2023-03-20T06:06:25;45.55;;;39.02;;
50591;SDS011;36548;50.506;30.834;2023-03-20T06:07:34;44.40;;;38.88;;
50591;SDS011;36548;50.506;30.834;2023-03-20T06:08:46;45.73;;;38.98;;
50591;SDS011;36548;50.506;30.834;2023-03-20T06:09:57;46.05;;;38.25;;
50591;SDS011;36548;50.506;30.834;2023-03-20T06:11:07;45.00;;;38.30;;
50591;SDS011;36548;50.506;30.834;2023-03-20T06:12:18;44.50;;;38.88;;
50591;SDS011;36548;50.506;30.834;2023-03-20T06:13:27;42.73;;;37.82;;
50591;SDS011;36548;50.506;30.834;2023-03-20T06:14:37;44.10;;;37.45;;
50591;SDS011;36548;50.506;30.834;2023-03-20T06:15:50;46.15;;;38.80;;
50591;SDS011;36548;50.506;30.834;2023-03-20T06:17:00;42.73;;;35.93;;
50591;SDS011;36548;50.506;30.834;2023-03-20T06:18:09;42.77;;;37.57;;
50591;SDS011;36548;50.506;30.834;2023-03-20T06:19:22;47.27;;;39.98;;
50591;SDS011;36548;50.506;30.834;2023-03-20T06:21:43;48.33;;;40.25;;
50591;SDS011;36548;50.506;30.834;2023-03-20T06:22:54;46.98;;;40.32;;
50591;SDS011;36548;50.506;30.834;2023-03-20T06:24:04;48.17;;;41.13;;
50591;SDS011;36548;50.506;30.834;2023-03-20T06:25:14;43.80;;;39.10;;
50591;SDS011;36548;50.506;30.834;2023-03-20T06:26:24;48.12;;;40.35;;
50591;SDS011;36548;50.506;30.834;2023-03-20T06:27:41;44.37;;;39.30;;
50591;SDS011;36548;50.506;30.834;2023-03-20T06:28:56;46.92;;;39.63;;
50591;SDS011;36548;50.506;30.834;2023-03-20T06:30:05;43.60;;;38.87;;
50591;SDS011;36548;50.506;30.834;2023-03-20T06:31:16;47.75;;;40.33;;
50591;SDS011;36548;50.506;30.834;2023-03-20T06:32:25;42.88;;;38.35;;
50591;SDS011;36548;50.506;30.834;2023-03-20T06:33:36;45.02;;;40.12;;
50591;SDS011;36548;50.506;30.834;2023-03-20T06:34:45;47.93;;;39.93;;
50591;SDS011;36548;50.506;30.834;2023-03-20T06:35:58;46.37;;;41.22;;
50591;SDS011;36548;50.506;30.834;2023-03-20T06:37:16;50.12;;;42.25;;
50591;SDS011;36548;50.506;30.834;2023-03-20T06:38:36;48.35;;;40.68;;
50591;SDS011;36548;50.506;30.834;2023-03-20T06:39:53;49.55;;;41.80;;
50591;SDS011;36548;50.506;30.834;2023-03-20T06:41:02;49.67;;;41.40;;
50591;SDS011;36548;50.506;30.834;2023-03-20T06:42:20;49.30;;;41.60;;
50591;SDS011;36548;50.506;30.834;2023-03-20T06:43:29;45.47;;;40.67;;
50591;SDS011;36548;50.506;30.834;2023-03-20T06:44:38;50.52;;;42.90;;
50591;SDS011;36548;50.506;30.834;2023-03-20T06:45:54;51.48;;;44.22;;
50591;SDS011;36548;50.506;30.834;2023-03-20T06:48:14;50.27;;;40.25;;
50591;SDS011;36548;50.506;30.834;2023-03-20T06:50:33;48.93;;;42.05;;
50591;SDS011;36548;50.506;30.834;2023-03-20T06:51:48;47.53;;;42.32;;
50591;SDS011;36548;50.506;30.834;2023-03-20T06:53:00;45.58;;;40.35;;
50591;SDS011;36548;50.506;30.834;2023-03-20T06:54:17;47.92;;;41.20;;
50591;SDS011;36548;50.506;30.834;2023-03-20T06:55:32;45.47;;;38.42;;
50591;SDS011;36548;50.506;30.834;2023-03-20T06:56:44;48.25;;;40.93;;
50591;SDS011;36548;50.506;30.834;2023-03-20T06:57:53;45.92;;;41.00;;
50591;SDS011;36548;50.506;30.834;2023-03-20T06:59:02;46.10;;;40.90;;
50591;SDS011;36548;50.506;30.834;2023-03-20T07:00:13;46.18;;;38.63;;
50591;SDS011;36548;50.506;30.834;2023-03-20T07:01:23;45.58;;;40.68;;
50591;SDS011;36548;50.506;30.834;2023-03-20T07:02:38;45.55;;;40.65;;
50591;SDS011;36548;50.506;30.834;2023-03-20T07:03:47;45.05;;;39.95;;
50591;SDS011;36548;50.506;30.834;2023-03-20T07:05:03;44.47;;;38.23;;
50591;SDS011;36548;50.506;30.834;2023-03-20T07:06:14;43.77;;;38.17;;
50591;SDS011;36548;50.506;30.834;2023-03-20T07:07:26;46.22;;;39.73;;
50591;SDS011;36548;50.506;30.834;2023-03-20T07:08:34;49.02;;;40.24;;
50591;SDS011;36548;50.506;30.834;2023-03-20T07:09:44;43.82;;;36.82;;
50591;SDS011;36548;50.506;30.834;2023-03-20T07:10:54;45.02;;;38.82;;
50591;SDS011;36548;50.506;30.834;2023-03-20T07:12:12;43.00;;;37.05;;
50591;SDS011;36548;50.506;30.834;2023-03-20T07:13:23;39.80;;;35.48;;
50591;SDS011;36548;50.506;30.834;2023-03-20T07:14:40;42.72;;;37.25;;
50591;SDS011;36548;50.506;30.834;2023-03-20T07:15:52;43.68;;;37.75;;
50591;SDS011;36548;50.506;30.834;2023-03-20T07:17:08;43.00;;;38.30;;
50591;SDS011;36548;50.506;30.834;2023-03-20T07:18:18;42.83;;;37.23;;
50591;SDS011;36548;50.506;30.834;2023-03-20T07:19:27;43.67;;;38.93;;
50591;SDS011;36548;50.506;30.834;2023-03-20T07:21:03;44.05;;;39.15;;
50591;SDS011;36548;50.506;30.834;2023-03-20T07:22:18;45.87;;;38.75;;
50591;SDS011;36548;50.506;30.834;2023-03-20T07:23:32;44.85;;;39.85;;
50591;SDS011;36548;50.506;30.834;2023-03-20T07:24:48;45.23;;;39.87;;
50591;SDS011;36548;50.506;30.834;2023-03-20T07:26:01;44.95;;;37.95;;
50591;SDS011;36548;50.506;30.834;2023-03-20T07:27:12;43.23;;;37.20;;
50591;SDS011;36548;50.506;30.834;2023-03-20T07:28:27;42.07;;;37.33;;
50591;SDS011;36548;50.506;30.834;2023-03-20T07:29:38;41.22;;;35.47;;
50591;SDS011;36548;50.506;30.834;2023-03-20T07:30:54;41.42;;;36.20;;
50591;SDS011;36548;50.506;30.834;2023-03-20T07:32:03;40.22;;;34.97;;
50591;SDS011;36548;50.506;30.834;2023-03-20T07:33:17;40.35;;;34.45;;
50591;SDS011;36548;50.506;30.834;2023-03-20T07:34:27;40.85;;;34.80;;
50591;SDS011;36548;50.506;30.834;2023-03-20T07:35:37;45.92;;;37.87;;
50591;SDS011;36548;50.506;30.834;2023-03-20T07:36:48;42.43;;;37.33;;
50591;SDS011;36548;50.506;30.834;2023-03-20T07:38:03;42.67;;;36.80;;
50591;SDS011;36548;50.506;30.834;2023-03-20T07:39:13;39.85;;;34.80;;
50591;SDS011;36548;50.506;30.834;2023-03-20T07:40:29;41.20;;;34.90;;
50591;SDS011;36548;50.506;30.834;2023-03-20T07:41:41;40.65;;;33.30;;
50591;SDS011;36548;50.506;30.834;2023-03-20T07:42:56;38.98;;;34.05;;
50591;SDS011;36548;50.506;30.834;2023-03-20T07:44:15;40.40;;;34.40;;
50591;SDS011;36548;50.506;30.834;2023-03-20T07:45:33;39.50;;;30.83;;
50591;SDS011;36548;50.506;30.834;2023-03-20T07:46:43;34.07;;;30.38;;
50591;SDS011;36548;50.506;30.834;2023-03-20T07:47:56;37.65;;;29.90;;
50591;SDS011;36548;50.506;30.834;2023-03-20T07:49:06;35.60;;;31.72;;
50591;SDS011;36548;50.506;30.834;2023-03-20T07:50:16;38.65;;;33.18;;
50591;SDS011;36548;50.506;30.834;2023-03-20T07:51:26;38.00;;;32.52;;
50591;SDS011;36548;50.506;30.834;2023-03-20T07:52:35;37.30;;;32.35;;
50591;SDS011;36548;50.506;30.834;2023-03-20T07:53:44;34.42;;;30.42;;
50591;SDS011;36548;50.506;30.834;2023-03-20T07:54:53;32.53;;;27.08;;
50591;SDS011;36548;50.506;30.834;2023-03-20T07:56:08;28.00;;;24.07;;
50591;SDS011;36548;50.506;30.834;2023-03-20T07:57:18;31.65;;;26.60;;
50591;SDS011;36548;50.506;30.834;2023-03-20T07:58:35;32.15;;;25.42;;
50591;SDS011;36548;50.506;30.834;2023-03-20T07:59:45;28.50;;;24.95;;
50591;SDS011;36548;50.506;30.834;2023-03-20T08:00:55;28.15;;;24.40;;
50591;SDS011;36548;50.506;30.834;2023-03-20T08:02:06;28.78;;;23.78;;
50591;SDS011;36548;50.506;30.834;2023-03-20T08:04:27;33.07;;;25.82;;
50591;SDS011;36548;50.506;30.834;2023-03-20T08:05:37;28.05;;;24.85;;
50591;SDS011;36548;50.506;30.834;2023-03-20T08:06:52;28.67;;;24.02;;
50591;SDS011;36548;50.506;30.834;2023-03-20T08:08:01;27.43;;;21.00;;
50591;SDS011;36548;50.506;30.834;2023-03-20T08:09:10;24.95;;;21.10;;
50591;SDS011;36548;50.506;30.834;2023-03-20T08:10:20;24.30;;;21.30;;
50591;SDS011;36548;50.506;30.834;2023-03-20T08:11:29;25.80;;;21.77;;
50591;SDS011;36548;50.506;30.834;2023-03-20T08:12:41;25.95;;;20.95;;